Ana Sayfa
METAR-TAF:

METAR-TAF

Havaalanları :

Havana, Küba

Enlem: 22-59N, Boylam: 082-24W, yükseklik: 59 m

Güncel hava durumu gözlemi

Rapor saat 18:55 UTC de 15 dakika önce yapıldı.
Rüzgar güneydan 6 kt, doğu ve güneybatı arasında değişken
Sıcaklık 29°C
Nem 43%
Basınç 1015 hPa
Görüş mesafesi: 9000 m
4000 ft yükseklikte az bulutlu

METAR: MUHA 241855Z 17006KT 090V220 9000 FEW040 29/15 Q1015

Saat: 14:10 (19:10 UTC)

Tahmin

Rapor saat 17:00 UTC de 2 saat ve 10 dakika önce yapıldı.
Ayın 24'si saat 18 UTC'den ayın 25'si saat 18 UTC'ye kadar geçerli Tahmin
Rüzgar güneydan 10 kt
Görüş mesafesi: 9000 m
3000 ft yükseklikte az bulutlu
Dönüşüyor
ayın 25'si saat 02 UTC'den ayın 25'si saat 05 UTC'ye kadar
Rüzgar değişken yönden 3 kt
Dönüşüyor
ayın 25'si saat 15 UTC'den ayın 25'si saat 17 UTC'ye kadar
Rüzgar güney/güneydoğudan 10 kt

TAF: MUHA 241700Z 2418/2518 17010KT 9000 FEW030 BECMG 2502/2505 VRB03KT BECMG 2515/2517 16010KT

4.000'den fazla havaalanı için hava durumu gözlemleri ve tahminleri (METAR ve TAF raporları).

Kullanılabilir istasyonlar harita üzerinde sarı ve kırmızı noktalarla gösterilir.

İstasyonun adını görmek için fareyi noktanın üzerinde gezdirin.

Sonrasında hava gözlem ve tahminlerini görmek için tıklayın.

Haritayı değiştirmek için: yaklaştırmak için siyah artı işaretli yeşil düğmeye ve uzaklaştırmak için de eksi işaretli düğmeye hızla tıklayın; bitişik haritalar için yeşil okları kullanın.


METAR-TAF: